sensor_id;sensor_type;location;lat;lon;timestamp;temperature;humidity
1716;DHT22;855;48.824;9.220;2022-10-03T00:00:34;13.80;98.70
1716;DHT22;855;48.824;9.220;2022-10-03T00:03:21;13.90;98.40
1716;DHT22;855;48.824;9.220;2022-10-03T00:06:04;13.80;98.10
1716;DHT22;855;48.824;9.220;2022-10-03T00:09:08;13.70;98.50
1716;DHT22;855;48.824;9.220;2022-10-03T00:11:51;13.80;98.50
1716;DHT22;855;48.824;9.220;2022-10-03T00:14:26;13.80;98.40
1716;DHT22;855;48.824;9.220;2022-10-03T00:17:02;13.80;98.30
1716;DHT22;855;48.824;9.220;2022-10-03T00:19:39;13.80;98.30
1716;DHT22;855;48.824;9.220;2022-10-03T00:22:16;13.70;98.50
1716;DHT22;855;48.824;9.220;2022-10-03T00:24:56;13.70;98.60
1716;DHT22;855;48.824;9.220;2022-10-03T00:27:32;13.70;98.70
1716;DHT22;855;48.824;9.220;2022-10-03T00:30:12;13.80;98.60
1716;DHT22;855;48.824;9.220;2022-10-03T00:33:05;14.00;98.40
1716;DHT22;855;48.824;9.220;2022-10-03T00:36:05;14.10;98.10
1716;DHT22;855;48.824;9.220;2022-10-03T00:41:38;14.20;97.60
1716;DHT22;855;48.824;9.220;2022-10-03T00:44:43;14.30;97.30
1716;DHT22;855;48.824;9.220;2022-10-03T00:47:32;14.40;97.10
1716;DHT22;855;48.824;9.220;2022-10-03T00:50:41;14.50;96.80
1716;DHT22;855;48.824;9.220;2022-10-03T00:53:21;14.60;96.70
1716;DHT22;855;48.824;9.220;2022-10-03T00:56:05;14.70;96.30
1716;DHT22;855;48.824;9.220;2022-10-03T00:58:48;14.70;96.10
1716;DHT22;855;48.824;9.220;2022-10-03T01:01:30;14.80;96.00
1716;DHT22;855;48.824;9.220;2022-10-03T01:04:13;14.80;95.90
1716;DHT22;855;48.824;9.220;2022-10-03T01:06:46;14.80;95.80
1716;DHT22;855;48.824;9.220;2022-10-03T01:09:21;14.90;95.70
1716;DHT22;855;48.824;9.220;2022-10-03T01:12:07;14.90;95.70
1716;DHT22;855;48.824;9.220;2022-10-03T01:14:50;15.00;95.50
1716;DHT22;855;48.824;9.220;2022-10-03T01:17:33;15.00;95.30
1716;DHT22;855;48.824;9.220;2022-10-03T01:20:21;14.90;95.00
1716;DHT22;855;48.824;9.220;2022-10-03T01:26:43;14.90;95.30
1716;DHT22;855;48.824;9.220;2022-10-03T01:29:20;14.90;95.20
1716;DHT22;855;48.824;9.220;2022-10-03T01:32:09;14.80;95.30
1716;DHT22;855;48.824;9.220;2022-10-03T01:34:42;14.70;95.50
1716;DHT22;855;48.824;9.220;2022-10-03T01:37:16;14.70;95.80
1716;DHT22;855;48.824;9.220;2022-10-03T01:39:51;14.70;96.10
1716;DHT22;855;48.824;9.220;2022-10-03T01:42:32;14.80;95.90
1716;DHT22;855;48.824;9.220;2022-10-03T01:45:09;14.80;95.80
1716;DHT22;855;48.824;9.220;2022-10-03T01:47:44;14.90;95.70
1716;DHT22;855;48.824;9.220;2022-10-03T01:50:22;14.90;95.50
1716;DHT22;855;48.824;9.220;2022-10-03T01:52:56;14.70;95.40
1716;DHT22;855;48.824;9.220;2022-10-03T01:55:32;14.60;95.90
1716;DHT22;855;48.824;9.220;2022-10-03T01:58:06;14.70;96.30
1716;DHT22;855;48.824;9.220;2022-10-03T02:00:43;14.70;96.10
1716;DHT22;855;48.824;9.220;2022-10-03T02:03:16;14.60;96.10
1716;DHT22;855;48.824;9.220;2022-10-03T02:05:52;14.40;96.40
1716;DHT22;855;48.824;9.220;2022-10-03T02:08:27;14.40;96.70
1716;DHT22;855;48.824;9.220;2022-10-03T02:11:00;14.30;96.80
1716;DHT22;855;48.824;9.220;2022-10-03T02:13:36;14.30;96.90
1716;DHT22;855;48.824;9.220;2022-10-03T02:16:10;14.30;97.00
1716;DHT22;855;48.824;9.220;2022-10-03T02:18:45;14.20;97.10
1716;DHT22;855;48.824;9.220;2022-10-03T02:21:17;14.10;97.20
1716;DHT22;855;48.824;9.220;2022-10-03T02:23:46;14.20;97.50
1716;DHT22;855;48.824;9.220;2022-10-03T02:26:31;14.30;97.20
1716;DHT22;855;48.824;9.220;2022-10-03T02:32:23;14.40;96.90
1716;DHT22;855;48.824;9.220;2022-10-03T02:35:08;14.50;96.70
1716;DHT22;855;48.824;9.220;2022-10-03T02:40:56;14.50;96.30
1716;DHT22;855;48.824;9.220;2022-10-03T02:47:07;14.50;96.10
1716;DHT22;855;48.824;9.220;2022-10-03T02:50:02;14.50;96.30
1716;DHT22;855;48.824;9.220;2022-10-03T02:55:49;14.60;96.10
1716;DHT22;855;48.824;9.220;2022-10-03T02:58:51;14.60;96.10
1716;DHT22;855;48.824;9.220;2022-10-03T03:01:42;14.70;96.10
1716;DHT22;855;48.824;9.220;2022-10-03T03:07:54;14.80;95.50
1716;DHT22;855;48.824;9.220;2022-10-03T03:10:58;14.50;95.60
1716;DHT22;855;48.824;9.220;2022-10-03T03:16:53;14.20;97.10
1716;DHT22;855;48.824;9.220;2022-10-03T03:22:31;14.30;96.80
1716;DHT22;855;48.824;9.220;2022-10-03T03:25:15;14.00;97.20
1716;DHT22;855;48.824;9.220;2022-10-03T03:27:54;13.90;97.90
1716;DHT22;855;48.824;9.220;2022-10-03T03:30:31;14.10;97.60
1716;DHT22;855;48.824;9.220;2022-10-03T03:33:09;14.30;97.30
1716;DHT22;855;48.824;9.220;2022-10-03T03:35:50;14.40;97.10
1716;DHT22;855;48.824;9.220;2022-10-03T03:38:31;14.50;96.70
1716;DHT22;855;48.824;9.220;2022-10-03T03:41:21;14.60;96.30
1716;DHT22;855;48.824;9.220;2022-10-03T03:44:08;14.70;96.10
1716;DHT22;855;48.824;9.220;2022-10-03T03:46:51;14.70;96.00
1716;DHT22;855;48.824;9.220;2022-10-03T03:49:37;14.70;95.90
1716;DHT22;855;48.824;9.220;2022-10-03T03:52:25;14.70;95.90
1716;DHT22;855;48.824;9.220;2022-10-03T03:55:10;14.70;95.90
1716;DHT22;855;48.824;9.220;2022-10-03T03:58:03;14.70;96.00
1716;DHT22;855;48.824;9.220;2022-10-03T04:00:45;14.80;95.90
1716;DHT22;855;48.824;9.220;2022-10-03T04:03:33;14.80;95.80
1716;DHT22;855;48.824;9.220;2022-10-03T04:06:25;14.80;95.80
1716;DHT22;855;48.824;9.220;2022-10-03T04:09:06;14.70;95.90
1716;DHT22;855;48.824;9.220;2022-10-03T04:11:49;14.80;95.80
1716;DHT22;855;48.824;9.220;2022-10-03T04:14:52;14.60;95.80
1716;DHT22;855;48.824;9.220;2022-10-03T04:17:46;14.60;96.10
1716;DHT22;855;48.824;9.220;2022-10-03T04:23:56;14.50;96.10
1716;DHT22;855;48.824;9.220;2022-10-03T04:26:35;14.40;96.10
1716;DHT22;855;48.824;9.220;2022-10-03T04:29:42;14.50;96.30
1716;DHT22;855;48.824;9.220;2022-10-03T04:32:25;14.50;96.30
1716;DHT22;855;48.824;9.220;2022-10-03T04:35:12;14.50;96.30
1716;DHT22;855;48.824;9.220;2022-10-03T04:37:46;14.50;96.30
1716;DHT22;855;48.824;9.220;2022-10-03T04:40:26;14.50;96.30
1716;DHT22;855;48.824;9.220;2022-10-03T04:43:05;14.40;96.30
1716;DHT22;855;48.824;9.220;2022-10-03T04:45:52;14.30;96.50
1716;DHT22;855;48.824;9.220;2022-10-03T04:48:26;14.30;96.70
1716;DHT22;855;48.824;9.220;2022-10-03T04:51:05;14.50;96.70
1716;DHT22;855;48.824;9.220;2022-10-03T04:53:42;14.50;96.50
1716;DHT22;855;48.824;9.220;2022-10-03T04:56:30;14.60;96.30
1716;DHT22;855;48.824;9.220;2022-10-03T04:59:07;14.60;96.10
1716;DHT22;855;48.824;9.220;2022-10-03T05:01:43;14.60;95.90
1716;DHT22;855;48.824;9.220;2022-10-03T05:04:21;14.50;95.60
1716;DHT22;855;48.824;9.220;2022-10-03T05:06:58;14.30;95.90
1716;DHT22;855;48.824;9.220;2022-10-03T05:35:02;13.60;98.10
1716;DHT22;855;48.824;9.220;2022-10-03T05:40:58;13.60;98.20
1716;DHT22;855;48.824;9.220;2022-10-03T05:43:35;13.60;98.10
1716;DHT22;855;48.824;9.220;2022-10-03T05:46:19;13.50;98.30
1716;DHT22;855;48.824;9.220;2022-10-03T06:46:26;13.90;95.40
1716;DHT22;855;48.824;9.220;2022-10-03T07:24:20;13.90;93.80
1716;DHT22;855;48.824;9.220;2022-10-03T07:27:09;14.00;94.00
1716;DHT22;855;48.824;9.220;2022-10-03T07:40:20;14.00;93.40
1716;DHT22;855;48.824;9.220;2022-10-03T07:45:29;14.10;93.20
1716;DHT22;855;48.824;9.220;2022-10-03T08:14:16;14.40;91.50
1716;DHT22;855;48.824;9.220;2022-10-03T09:46:55;16.10;84.20
1716;DHT22;855;48.824;9.220;2022-10-03T09:55:21;16.30;82.00
1716;DHT22;855;48.824;9.220;2022-10-03T10:00:39;16.50;80.30
1716;DHT22;855;48.824;9.220;2022-10-03T10:06:55;16.80;79.20
1716;DHT22;855;48.824;9.220;2022-10-03T10:09:51;16.60;78.20
1716;DHT22;855;48.824;9.220;2022-10-03T10:13:06;16.40;79.00
1716;DHT22;855;48.824;9.220;2022-10-03T10:19:07;16.30;79.50
1716;DHT22;855;48.824;9.220;2022-10-03T10:21:46;16.30;80.00
1716;DHT22;855;48.824;9.220;2022-10-03T10:30:13;16.40;80.40
1716;DHT22;855;48.824;9.220;2022-10-03T10:45:22;16.10;83.20
1716;DHT22;855;48.824;9.220;2022-10-03T11:20:53;15.90;80.80
1716;DHT22;855;48.824;9.220;2022-10-03T11:33:16;16.30;78.00
1716;DHT22;855;48.824;9.220;2022-10-03T11:39:00;16.30;77.00
1716;DHT22;855;48.824;9.220;2022-10-03T11:41:39;16.60;76.70
1716;DHT22;855;48.824;9.220;2022-10-03T11:44:19;16.70;75.30
1716;DHT22;855;48.824;9.220;2022-10-03T12:05:00;17.40;72.10
1716;DHT22;855;48.824;9.220;2022-10-03T12:12:43;17.10;73.50
1716;DHT22;855;48.824;9.220;2022-10-03T12:17:45;17.20;72.10
1716;DHT22;855;48.824;9.220;2022-10-03T12:25:33;17.60;72.30
1716;DHT22;855;48.824;9.220;2022-10-03T12:36:44;17.70;66.10
1716;DHT22;855;48.824;9.220;2022-10-03T12:49:50;17.80;66.10
1716;DHT22;855;48.824;9.220;2022-10-03T12:52:25;17.90;67.50
1716;DHT22;855;48.824;9.220;2022-10-03T12:55:06;17.90;67.30
1716;DHT22;855;48.824;9.220;2022-10-03T12:57:46;17.70;66.00
1716;DHT22;855;48.824;9.220;2022-10-03T13:03:04;17.80;65.60
1716;DHT22;855;48.824;9.220;2022-10-03T13:05:43;17.70;66.30
1716;DHT22;855;48.824;9.220;2022-10-03T13:10:56;17.90;65.90
1716;DHT22;855;48.824;9.220;2022-10-03T13:13:31;17.80;65.10
1716;DHT22;855;48.824;9.220;2022-10-03T13:16:20;17.60;64.00
1716;DHT22;855;48.824;9.220;2022-10-03T13:18:57;17.50;65.70
1716;DHT22;855;48.824;9.220;2022-10-03T13:21:46;17.50;65.90
1716;DHT22;855;48.824;9.220;2022-10-03T13:26:52;17.50;63.50
1716;DHT22;855;48.824;9.220;2022-10-03T13:32:12;17.60;63.80
1716;DHT22;855;48.824;9.220;2022-10-03T13:35:05;17.60;62.40
1716;DHT22;855;48.824;9.220;2022-10-03T13:40:33;17.70;61.90
1716;DHT22;855;48.824;9.220;2022-10-03T13:43:02;17.60;61.20
1716;DHT22;855;48.824;9.220;2022-10-03T13:45:30;17.70;61.20
1716;DHT22;855;48.824;9.220;2022-10-03T13:48:03;17.90;62.60
1716;DHT22;855;48.824;9.220;2022-10-03T13:50:34;17.90;62.30
1716;DHT22;855;48.824;9.220;2022-10-03T13:53:10;17.70;62.20
1716;DHT22;855;48.824;9.220;2022-10-03T13:55:45;17.70;62.20
1716;DHT22;855;48.824;9.220;2022-10-03T13:58:34;17.70;63.20
1716;DHT22;855;48.824;9.220;2022-10-03T14:01:30;17.80;63.00
1716;DHT22;855;48.824;9.220;2022-10-03T14:04:13;17.60;63.00
1716;DHT22;855;48.824;9.220;2022-10-03T14:06:49;17.70;63.20
1716;DHT22;855;48.824;9.220;2022-10-03T14:09:37;17.80;63.60
1716;DHT22;855;48.824;9.220;2022-10-03T14:12:16;17.90;61.80
1716;DHT22;855;48.824;9.220;2022-10-03T14:14:56;17.90;61.80
1716;DHT22;855;48.824;9.220;2022-10-03T14:17:35;17.90;61.60
1716;DHT22;855;48.824;9.220;2022-10-03T14:20:19;18.00;62.60
1716;DHT22;855;48.824;9.220;2022-10-03T14:23:07;18.10;60.20
1716;DHT22;855;48.824;9.220;2022-10-03T14:25:41;18.10;60.30
1716;DHT22;855;48.824;9.220;2022-10-03T14:28:15;18.10;60.10
1716;DHT22;855;48.824;9.220;2022-10-03T14:30:56;18.30;60.20
1716;DHT22;855;48.824;9.220;2022-10-03T14:33:35;18.20;59.00
1716;DHT22;855;48.824;9.220;2022-10-03T14:36:16;18.20;59.70
1716;DHT22;855;48.824;9.220;2022-10-03T14:41:40;18.10;59.30
1716;DHT22;855;48.824;9.220;2022-10-03T14:51:59;18.00;59.50
1716;DHT22;855;48.824;9.220;2022-10-03T14:54:29;18.10;62.00
1716;DHT22;855;48.824;9.220;2022-10-03T14:56:57;18.10;61.80
1716;DHT22;855;48.824;9.220;2022-10-03T14:59:27;18.10;61.40
1716;DHT22;855;48.824;9.220;2022-10-03T15:01:58;18.10;61.10
1716;DHT22;855;48.824;9.220;2022-10-03T15:04:29;17.90;60.10
1716;DHT22;855;48.824;9.220;2022-10-03T15:06:59;17.70;60.60
1716;DHT22;855;48.824;9.220;2022-10-03T15:09:39;17.70;61.20
1716;DHT22;855;48.824;9.220;2022-10-03T15:12:10;17.60;61.20
1716;DHT22;855;48.824;9.220;2022-10-03T15:14:41;17.70;61.80
1716;DHT22;855;48.824;9.220;2022-10-03T15:17:19;17.80;61.60
1716;DHT22;855;48.824;9.220;2022-10-03T15:19:49;18.10;61.40
1716;DHT22;855;48.824;9.220;2022-10-03T15:22:28;18.20;60.60
1716;DHT22;855;48.824;9.220;2022-10-03T15:24:59;17.90;61.00
1716;DHT22;855;48.824;9.220;2022-10-03T15:27:27;17.80;61.10
1716;DHT22;855;48.824;9.220;2022-10-03T15:29:56;17.90;61.90
1716;DHT22;855;48.824;9.220;2022-10-03T15:32:28;17.90;61.50
1716;DHT22;855;48.824;9.220;2022-10-03T15:34:59;17.90;61.90
1716;DHT22;855;48.824;9.220;2022-10-03T15:37:30;17.80;63.10
1716;DHT22;855;48.824;9.220;2022-10-03T15:40:06;17.70;64.20
1716;DHT22;855;48.824;9.220;2022-10-03T15:42:45;17.70;65.10
1716;DHT22;855;48.824;9.220;2022-10-03T15:45:18;17.60;64.00
1716;DHT22;855;48.824;9.220;2022-10-03T15:47:48;17.50;66.40
1716;DHT22;855;48.824;9.220;2022-10-03T15:50:20;17.50;66.40
1716;DHT22;855;48.824;9.220;2022-10-03T15:52:52;17.40;66.50
1716;DHT22;855;48.824;9.220;2022-10-03T15:55:25;17.50;66.80
1716;DHT22;855;48.824;9.220;2022-10-03T15:57:59;17.20;67.20
1716;DHT22;855;48.824;9.220;2022-10-03T16:03:12;17.20;66.70
1716;DHT22;855;48.824;9.220;2022-10-03T16:05:50;17.00;68.00
1716;DHT22;855;48.824;9.220;2022-10-03T16:08:24;17.00;68.40
1716;DHT22;855;48.824;9.220;2022-10-03T16:13:33;16.70;68.10
1716;DHT22;855;48.824;9.220;2022-10-03T16:16:11;16.80;67.60
1716;DHT22;855;48.824;9.220;2022-10-03T16:18:54;16.80;67.30
1716;DHT22;855;48.824;9.220;2022-10-03T16:26:33;17.00;66.70
1716;DHT22;855;48.824;9.220;2022-10-03T16:29:09;16.90;66.80
1716;DHT22;855;48.824;9.220;2022-10-03T16:31:40;16.60;66.50
1716;DHT22;855;48.824;9.220;2022-10-03T16:36:46;16.70;67.60
1716;DHT22;855;48.824;9.220;2022-10-03T16:39:18;16.70;67.90
1716;DHT22;855;48.824;9.220;2022-10-03T17:03:42;16.40;72.70
1716;DHT22;855;48.824;9.220;2022-10-03T17:06:17;16.30;74.60
1716;DHT22;855;48.824;9.220;2022-10-03T17:08:49;16.40;74.70
1716;DHT22;855;48.824;9.220;2022-10-03T17:11:19;16.30;76.20
1716;DHT22;855;48.824;9.220;2022-10-03T17:16:30;15.90;79.30
1716;DHT22;855;48.824;9.220;2022-10-03T17:21:46;15.80;80.40
1716;DHT22;855;48.824;9.220;2022-10-03T17:24:25;15.90;79.90
1716;DHT22;855;48.824;9.220;2022-10-03T17:34:40;15.60;82.30
1716;DHT22;855;48.824;9.220;2022-10-03T17:47:53;15.00;84.50
1716;DHT22;855;48.824;9.220;2022-10-03T17:50:27;14.90;84.40
1716;DHT22;855;48.824;9.220;2022-10-03T17:52:58;14.60;85.20
1716;DHT22;855;48.824;9.220;2022-10-03T17:58:04;14.20;86.70
1716;DHT22;855;48.824;9.220;2022-10-03T18:08:38;14.10;87.00
1716;DHT22;855;48.824;9.220;2022-10-03T18:11:07;14.20;86.70
1716;DHT22;855;48.824;9.220;2022-10-03T18:13:38;14.20;86.60
1716;DHT22;855;48.824;9.220;2022-10-03T18:29:18;13.70;88.20
1716;DHT22;855;48.824;9.220;2022-10-03T18:31:55;13.60;88.60
1716;DHT22;855;48.824;9.220;2022-10-03T18:34:27;13.70;88.30
1716;DHT22;855;48.824;9.220;2022-10-03T18:37:13;13.70;88.30
1716;DHT22;855;48.824;9.220;2022-10-03T18:39:43;13.60;88.50
1716;DHT22;855;48.824;9.220;2022-10-03T18:42:11;13.50;89.00
1716;DHT22;855;48.824;9.220;2022-10-03T18:44:42;13.50;89.10
1716;DHT22;855;48.824;9.220;2022-10-03T18:47:19;13.40;89.10
1716;DHT22;855;48.824;9.220;2022-10-03T18:49:55;13.20;90.10
1716;DHT22;855;48.824;9.220;2022-10-03T18:52:30;13.20;90.50
1716;DHT22;855;48.824;9.220;2022-10-03T18:57:40;13.00;90.80
1716;DHT22;855;48.824;9.220;2022-10-03T19:00:15;12.80;91.10
1716;DHT22;855;48.824;9.220;2022-10-03T19:02:47;12.70;91.30
1716;DHT22;855;48.824;9.220;2022-10-03T19:05:19;12.70;91.20
1716;DHT22;855;48.824;9.220;2022-10-03T19:10:33;12.80;91.10
1716;DHT22;855;48.824;9.220;2022-10-03T19:13:09;12.70;91.00
1716;DHT22;855;48.824;9.220;2022-10-03T19:20:50;12.50;91.90
1716;DHT22;855;48.824;9.220;2022-10-03T19:23:21;12.40;91.90
1716;DHT22;855;48.824;9.220;2022-10-03T19:25:53;12.20;92.40
1716;DHT22;855;48.824;9.220;2022-10-03T19:28:24;12.20;92.50
1716;DHT22;855;48.824;9.220;2022-10-03T19:30:59;12.30;92.40
1716;DHT22;855;48.824;9.220;2022-10-03T19:36:06;12.30;92.20
1716;DHT22;855;48.824;9.220;2022-10-03T19:49:25;12.20;92.00
1716;DHT22;855;48.824;9.220;2022-10-03T19:57:25;12.00;92.70
1716;DHT22;855;48.824;9.220;2022-10-03T19:59:57;11.90;92.90
1716;DHT22;855;48.824;9.220;2022-10-03T20:05:00;11.90;92.90
1716;DHT22;855;48.824;9.220;2022-10-03T20:12:49;11.90;92.50
1716;DHT22;855;48.824;9.220;2022-10-03T20:15:20;11.80;92.50
1716;DHT22;855;48.824;9.220;2022-10-03T20:17:49;11.70;92.80
1716;DHT22;855;48.824;9.220;2022-10-03T20:20:19;11.70;92.80
1716;DHT22;855;48.824;9.220;2022-10-03T20:22:48;11.70;93.00
1716;DHT22;855;48.824;9.220;2022-10-03T20:32:57;11.70;92.70
1716;DHT22;855;48.824;9.220;2022-10-03T20:35:27;11.60;92.70
1716;DHT22;855;48.824;9.220;2022-10-03T20:38:01;11.50;92.80
1716;DHT22;855;48.824;9.220;2022-10-03T21:01:16;11.20;93.30
1716;DHT22;855;48.824;9.220;2022-10-03T21:13:58;11.10;93.80
1716;DHT22;855;48.824;9.220;2022-10-03T21:21:40;11.00;93.70
1716;DHT22;855;48.824;9.220;2022-10-03T21:24:19;10.90;93.60
1716;DHT22;855;48.824;9.220;2022-10-03T21:26:54;10.90;93.70
1716;DHT22;855;48.824;9.220;2022-10-03T22:32:36;10.30;93.30
1716;DHT22;855;48.824;9.220;2022-10-03T22:35:24;10.30;93.30
1716;DHT22;855;48.824;9.220;2022-10-03T22:37:56;10.20;93.40
1716;DHT22;855;48.824;9.220;2022-10-03T22:40:23;10.20;93.50
1716;DHT22;855;48.824;9.220;2022-10-03T22:42:54;10.20;93.50
1716;DHT22;855;48.824;9.220;2022-10-03T22:50:38;10.20;93.40
1716;DHT22;855;48.824;9.220;2022-10-03T23:03:30;10.00;93.90
1716;DHT22;855;48.824;9.220;2022-10-03T23:14:33;10.00;93.60
1716;DHT22;855;48.824;9.220;2022-10-03T23:17:13;9.90;93.60
1716;DHT22;855;48.824;9.220;2022-10-03T23:19:50;9.90;93.70
1716;DHT22;855;48.824;9.220;2022-10-03T23:22:21;9.90;93.60
1716;DHT22;855;48.824;9.220;2022-10-03T23:24:54;9.90;93.80
1716;DHT22;855;48.824;9.220;2022-10-03T23:27:43;9.80;94.00
1716;DHT22;855;48.824;9.220;2022-10-03T23:36:01;9.60;94.50
1716;DHT22;855;48.824;9.220;2022-10-03T23:38:57;9.60;94.40
1716;DHT22;855;48.824;9.220;2022-10-03T23:41:44;9.60;94.40
1716;DHT22;855;48.824;9.220;2022-10-03T23:44:33;9.60;94.10
1716;DHT22;855;48.824;9.220;2022-10-03T23:47:03;9.60;94.00
1716;DHT22;855;48.824;9.220;2022-10-03T23:49:33;9.60;93.90
1716;DHT22;855;48.824;9.220;2022-10-03T23:52:01;9.60;94.00
1716;DHT22;855;48.824;9.220;2022-10-03T23:54:28;9.50;94.00
1716;DHT22;855;48.824;9.220;2022-10-03T23:57:02;9.50;94.10
1716;DHT22;855;48.824;9.220;2022-10-03T23:59:33;9.50;94.10
